sensor_id;sensor_type;location;lat;lon;timestamp;temperature;humidity
563;DHT22;266;49.514;8.294;2024-03-29T00:00:56;6.70;99.90
563;DHT22;266;49.514;8.294;2024-03-29T00:03:23;6.70;99.90
563;DHT22;266;49.514;8.294;2024-03-29T00:05:49;6.80;99.90
563;DHT22;266;49.514;8.294;2024-03-29T00:08:15;7.00;99.90
563;DHT22;266;49.514;8.294;2024-03-29T00:10:41;6.80;99.90
563;DHT22;266;49.514;8.294;2024-03-29T00:13:08;6.80;99.90
563;DHT22;266;49.514;8.294;2024-03-29T00:15:35;6.90;99.90
563;DHT22;266;49.514;8.294;2024-03-29T00:18:01;7.00;99.90
563;DHT22;266;49.514;8.294;2024-03-29T00:20:27;6.90;99.90
563;DHT22;266;49.514;8.294;2024-03-29T00:22:53;6.90;99.90
563;DHT22;266;49.514;8.294;2024-03-29T00:25:20;7.00;99.90
563;DHT22;266;49.514;8.294;2024-03-29T00:27:46;7.10;99.90
563;DHT22;266;49.514;8.294;2024-03-29T00:30:14;6.90;99.90
563;DHT22;266;49.514;8.294;2024-03-29T00:32:41;6.80;99.90
563;DHT22;266;49.514;8.294;2024-03-29T00:35:07;7.00;99.90
563;DHT22;266;49.514;8.294;2024-03-29T00:37:34;7.00;99.90
563;DHT22;266;49.514;8.294;2024-03-29T00:40:00;6.90;99.90
563;DHT22;266;49.514;8.294;2024-03-29T00:42:26;7.00;99.90
563;DHT22;266;49.514;8.294;2024-03-29T00:44:52;7.10;99.90
563;DHT22;266;49.514;8.294;2024-03-29T00:47:20;7.20;99.90
563;DHT22;266;49.514;8.294;2024-03-29T00:49:46;7.30;99.90
563;DHT22;266;49.514;8.294;2024-03-29T00:52:12;7.40;99.90
563;DHT22;266;49.514;8.294;2024-03-29T00:54:38;7.50;99.90
563;DHT22;266;49.514;8.294;2024-03-29T00:57:04;7.50;99.90
563;DHT22;266;49.514;8.294;2024-03-29T00:59:31;7.50;99.90
563;DHT22;266;49.514;8.294;2024-03-29T01:01:57;7.50;99.90
563;DHT22;266;49.514;8.294;2024-03-29T01:04:25;7.60;99.90
563;DHT22;266;49.514;8.294;2024-03-29T01:06:51;7.60;99.90
563;DHT22;266;49.514;8.294;2024-03-29T01:09:17;7.60;99.90
563;DHT22;266;49.514;8.294;2024-03-29T01:11:43;7.70;99.90
563;DHT22;266;49.514;8.294;2024-03-29T01:14:09;7.70;99.90
563;DHT22;266;49.514;8.294;2024-03-29T01:16:36;7.80;99.90
563;DHT22;266;49.514;8.294;2024-03-29T01:19:02;7.80;99.90
563;DHT22;266;49.514;8.294;2024-03-29T01:21:29;7.90;99.90
563;DHT22;266;49.514;8.294;2024-03-29T01:23:55;7.80;99.90
563;DHT22;266;49.514;8.294;2024-03-29T01:26:22;7.90;99.90
563;DHT22;266;49.514;8.294;2024-03-29T01:28:48;7.90;99.90
563;DHT22;266;49.514;8.294;2024-03-29T01:31:14;7.80;99.90
563;DHT22;266;49.514;8.294;2024-03-29T01:33:41;7.80;99.90
563;DHT22;266;49.514;8.294;2024-03-29T01:36:07;7.90;99.90
563;DHT22;266;49.514;8.294;2024-03-29T01:38:35;7.90;99.90
563;DHT22;266;49.514;8.294;2024-03-29T01:41:01;7.90;99.90
563;DHT22;266;49.514;8.294;2024-03-29T01:43:27;7.80;99.90
563;DHT22;266;49.514;8.294;2024-03-29T01:45:55;7.70;99.90
563;DHT22;266;49.514;8.294;2024-03-29T01:48:24;7.60;99.90
563;DHT22;266;49.514;8.294;2024-03-29T01:50:53;7.50;99.90
563;DHT22;266;49.514;8.294;2024-03-29T01:53:21;7.40;99.90
563;DHT22;266;49.514;8.294;2024-03-29T01:55:50;7.40;99.90
563;DHT22;266;49.514;8.294;2024-03-29T01:58:18;7.30;99.90
563;DHT22;266;49.514;8.294;2024-03-29T02:00:51;7.30;99.90
563;DHT22;266;49.514;8.294;2024-03-29T02:03:19;7.30;99.90
563;DHT22;266;49.514;8.294;2024-03-29T02:05:46;7.30;99.90
563;DHT22;266;49.514;8.294;2024-03-29T02:08:15;7.30;99.90
563;DHT22;266;49.514;8.294;2024-03-29T02:10:42;7.30;99.90
563;DHT22;266;49.514;8.294;2024-03-29T02:13:11;7.50;99.90
563;DHT22;266;49.514;8.294;2024-03-29T02:15:39;7.50;99.90
563;DHT22;266;49.514;8.294;2024-03-29T02:18:07;7.40;99.90
563;DHT22;266;49.514;8.294;2024-03-29T02:20:34;7.30;99.90
563;DHT22;266;49.514;8.294;2024-03-29T02:23:08;7.40;99.90
563;DHT22;266;49.514;8.294;2024-03-29T02:25:40;7.50;99.90
563;DHT22;266;49.514;8.294;2024-03-29T02:28:07;7.60;99.90
563;DHT22;266;49.514;8.294;2024-03-29T02:30:34;7.60;99.90
563;DHT22;266;49.514;8.294;2024-03-29T02:33:02;7.70;99.90
563;DHT22;266;49.514;8.294;2024-03-29T02:35:29;7.60;99.90
563;DHT22;266;49.514;8.294;2024-03-29T02:37:56;7.60;99.90
563;DHT22;266;49.514;8.294;2024-03-29T02:40:23;7.50;99.90
563;DHT22;266;49.514;8.294;2024-03-29T02:42:51;7.60;99.90
563;DHT22;266;49.514;8.294;2024-03-29T02:45:18;7.70;99.90
563;DHT22;266;49.514;8.294;2024-03-29T02:47:45;7.70;99.90
563;DHT22;266;49.514;8.294;2024-03-29T02:50:14;7.70;99.90
563;DHT22;266;49.514;8.294;2024-03-29T02:52:41;7.60;99.90
563;DHT22;266;49.514;8.294;2024-03-29T02:55:08;7.70;99.90
563;DHT22;266;49.514;8.294;2024-03-29T02:57:36;7.60;99.90
563;DHT22;266;49.514;8.294;2024-03-29T03:00:06;7.80;99.90
563;DHT22;266;49.514;8.294;2024-03-29T03:02:32;8.00;99.90
563;DHT22;266;49.514;8.294;2024-03-29T03:04:59;8.00;99.90
563;DHT22;266;49.514;8.294;2024-03-29T03:07:26;7.90;99.90
563;DHT22;266;49.514;8.294;2024-03-29T03:10:11;8.00;99.90
563;DHT22;266;49.514;8.294;2024-03-29T03:13:06;8.10;99.90
563;DHT22;266;49.514;8.294;2024-03-29T03:15:35;8.20;99.90
563;DHT22;266;49.514;8.294;2024-03-29T03:18:02;8.10;99.90
563;DHT22;266;49.514;8.294;2024-03-29T03:20:28;8.30;99.90
563;DHT22;266;49.514;8.294;2024-03-29T03:22:57;8.30;99.90
563;DHT22;266;49.514;8.294;2024-03-29T03:25:24;8.20;99.90
563;DHT22;266;49.514;8.294;2024-03-29T03:27:52;8.10;99.90
563;DHT22;266;49.514;8.294;2024-03-29T03:30:18;8.20;99.90
563;DHT22;266;49.514;8.294;2024-03-29T03:32:46;8.00;99.90
563;DHT22;266;49.514;8.294;2024-03-29T03:35:12;8.10;99.90
563;DHT22;266;49.514;8.294;2024-03-29T03:37:39;8.20;99.90
563;DHT22;266;49.514;8.294;2024-03-29T03:40:06;8.20;99.90
563;DHT22;266;49.514;8.294;2024-03-29T03:42:34;8.30;99.90
563;DHT22;266;49.514;8.294;2024-03-29T03:45:00;8.40;99.90
563;DHT22;266;49.514;8.294;2024-03-29T03:47:27;8.50;99.90
563;DHT22;266;49.514;8.294;2024-03-29T03:49:54;8.50;99.90
563;DHT22;266;49.514;8.294;2024-03-29T03:52:21;8.50;99.90
563;DHT22;266;49.514;8.294;2024-03-29T03:54:47;8.50;99.90
563;DHT22;266;49.514;8.294;2024-03-29T03:57:15;8.50;99.90
563;DHT22;266;49.514;8.294;2024-03-29T03:59:41;8.50;99.90
563;DHT22;266;49.514;8.294;2024-03-29T04:02:08;8.50;99.90
563;DHT22;266;49.514;8.294;2024-03-29T04:04:35;8.40;99.90
563;DHT22;266;49.514;8.294;2024-03-29T04:07:04;8.20;99.90
563;DHT22;266;49.514;8.294;2024-03-29T04:09:30;8.20;99.90
563;DHT22;266;49.514;8.294;2024-03-29T04:11:57;8.40;99.90
563;DHT22;266;49.514;8.294;2024-03-29T04:14:24;8.20;99.90
563;DHT22;266;49.514;8.294;2024-03-29T04:16:51;8.20;99.90
563;DHT22;266;49.514;8.294;2024-03-29T04:19:17;8.10;99.90
563;DHT22;266;49.514;8.294;2024-03-29T04:21:44;8.20;99.90
563;DHT22;266;49.514;8.294;2024-03-29T04:24:12;8.30;99.90
563;DHT22;266;49.514;8.294;2024-03-29T04:26:39;8.30;99.90
563;DHT22;266;49.514;8.294;2024-03-29T04:29:05;8.40;99.90
563;DHT22;266;49.514;8.294;2024-03-29T04:31:32;8.40;99.90
563;DHT22;266;49.514;8.294;2024-03-29T04:33:58;8.40;99.90
563;DHT22;266;49.514;8.294;2024-03-29T04:36:25;8.30;99.90
563;DHT22;266;49.514;8.294;2024-03-29T04:38:52;8.30;99.90
563;DHT22;266;49.514;8.294;2024-03-29T04:41:20;8.20;99.90
563;DHT22;266;49.514;8.294;2024-03-29T04:43:48;8.00;99.90
563;DHT22;266;49.514;8.294;2024-03-29T04:46:15;7.90;99.90
563;DHT22;266;49.514;8.294;2024-03-29T04:48:43;7.90;99.90
563;DHT22;266;49.514;8.294;2024-03-29T04:51:12;7.90;99.90
563;DHT22;266;49.514;8.294;2024-03-29T04:53:39;7.90;99.90
563;DHT22;266;49.514;8.294;2024-03-29T04:56:06;7.90;99.90
563;DHT22;266;49.514;8.294;2024-03-29T04:58:35;7.90;99.90
563;DHT22;266;49.514;8.294;2024-03-29T05:01:02;7.90;99.90
563;DHT22;266;49.514;8.294;2024-03-29T05:03:30;8.00;99.90
563;DHT22;266;49.514;8.294;2024-03-29T05:05:57;7.90;99.90
563;DHT22;266;49.514;8.294;2024-03-29T05:08:24;8.00;99.90
563;DHT22;266;49.514;8.294;2024-03-29T05:10:51;8.00;99.90
563;DHT22;266;49.514;8.294;2024-03-29T05:13:19;8.00;99.90
563;DHT22;266;49.514;8.294;2024-03-29T05:15:48;8.10;99.90
563;DHT22;266;49.514;8.294;2024-03-29T05:18:17;8.00;99.90
563;DHT22;266;49.514;8.294;2024-03-29T05:20:44;8.10;99.90
563;DHT22;266;49.514;8.294;2024-03-29T05:23:16;8.00;99.90
563;DHT22;266;49.514;8.294;2024-03-29T05:25:43;8.00;99.90
563;DHT22;266;49.514;8.294;2024-03-29T05:28:10;7.90;99.90
563;DHT22;266;49.514;8.294;2024-03-29T05:30:37;7.90;99.90
563;DHT22;266;49.514;8.294;2024-03-29T05:33:06;7.90;99.90
563;DHT22;266;49.514;8.294;2024-03-29T05:35:33;7.80;99.90
563;DHT22;266;49.514;8.294;2024-03-29T05:38:01;7.80;99.90
563;DHT22;266;49.514;8.294;2024-03-29T05:40:28;7.80;99.90
563;DHT22;266;49.514;8.294;2024-03-29T05:42:55;7.80;99.90
563;DHT22;266;49.514;8.294;2024-03-29T05:45:24;7.80;99.90
563;DHT22;266;49.514;8.294;2024-03-29T05:47:53;7.80;99.90
563;DHT22;266;49.514;8.294;2024-03-29T05:50:22;7.80;99.90
563;DHT22;266;49.514;8.294;2024-03-29T05:52:49;7.80;99.90
563;DHT22;266;49.514;8.294;2024-03-29T05:55:16;7.80;99.90
563;DHT22;266;49.514;8.294;2024-03-29T05:57:43;7.90;99.90
563;DHT22;266;49.514;8.294;2024-03-29T06:00:12;7.80;99.90
563;DHT22;266;49.514;8.294;2024-03-29T06:02:41;7.80;99.90
563;DHT22;266;49.514;8.294;2024-03-29T06:05:08;7.90;99.90
563;DHT22;266;49.514;8.294;2024-03-29T06:07:37;7.90;99.90
563;DHT22;266;49.514;8.294;2024-03-29T06:10:05;7.90;99.90
563;DHT22;266;49.514;8.294;2024-03-29T06:12:34;8.00;99.90
563;DHT22;266;49.514;8.294;2024-03-29T06:15:01;8.00;99.90
563;DHT22;266;49.514;8.294;2024-03-29T06:17:46;8.00;99.90
563;DHT22;266;49.514;8.294;2024-03-29T06:20:14;7.90;99.90
563;DHT22;266;49.514;8.294;2024-03-29T06:22:42;7.90;99.90
563;DHT22;266;49.514;8.294;2024-03-29T06:25:09;7.90;99.90
563;DHT22;266;49.514;8.294;2024-03-29T06:27:37;7.90;99.90
563;DHT22;266;49.514;8.294;2024-03-29T06:30:05;8.00;99.90
563;DHT22;266;49.514;8.294;2024-03-29T06:32:34;8.00;99.90
563;DHT22;266;49.514;8.294;2024-03-29T06:35:01;8.00;99.90
563;DHT22;266;49.514;8.294;2024-03-29T06:37:28;8.10;99.90
563;DHT22;266;49.514;8.294;2024-03-29T06:39:56;8.10;99.90
563;DHT22;266;49.514;8.294;2024-03-29T06:42:24;8.10;99.90
563;DHT22;266;49.514;8.294;2024-03-29T06:44:51;8.20;99.90
563;DHT22;266;49.514;8.294;2024-03-29T06:47:20;8.20;99.90
563;DHT22;266;49.514;8.294;2024-03-29T06:49:47;8.30;99.90
563;DHT22;266;49.514;8.294;2024-03-29T06:52:15;8.30;99.90
563;DHT22;266;49.514;8.294;2024-03-29T06:54:42;8.40;99.90
563;DHT22;266;49.514;8.294;2024-03-29T06:57:10;8.40;99.90
563;DHT22;266;49.514;8.294;2024-03-29T06:59:40;8.50;99.90
563;DHT22;266;49.514;8.294;2024-03-29T07:02:08;8.50;99.90
563;DHT22;266;49.514;8.294;2024-03-29T07:04:36;8.60;99.90
563;DHT22;266;49.514;8.294;2024-03-29T07:07:03;8.60;99.90
563;DHT22;266;49.514;8.294;2024-03-29T07:09:30;8.60;99.90
563;DHT22;266;49.514;8.294;2024-03-29T07:11:57;8.70;99.90
563;DHT22;266;49.514;8.294;2024-03-29T07:14:26;8.70;99.90
563;DHT22;266;49.514;8.294;2024-03-29T07:16:55;8.70;99.90
563;DHT22;266;49.514;8.294;2024-03-29T07:19:23;8.80;99.90
563;DHT22;266;49.514;8.294;2024-03-29T07:21:50;8.80;99.90
563;DHT22;266;49.514;8.294;2024-03-29T07:24:19;8.80;99.90
563;DHT22;266;49.514;8.294;2024-03-29T07:26:46;8.80;99.90
563;DHT22;266;49.514;8.294;2024-03-29T07:29:13;8.90;99.90
563;DHT22;266;49.514;8.294;2024-03-29T07:31:41;9.00;99.90
563;DHT22;266;49.514;8.294;2024-03-29T07:34:08;9.00;99.90
563;DHT22;266;49.514;8.294;2024-03-29T07:36:36;9.10;99.90
563;DHT22;266;49.514;8.294;2024-03-29T07:39:05;9.10;99.90
563;DHT22;266;49.514;8.294;2024-03-29T07:41:32;9.20;99.90
563;DHT22;266;49.514;8.294;2024-03-29T07:43:59;9.40;99.90
563;DHT22;266;49.514;8.294;2024-03-29T07:46:28;9.50;99.90
563;DHT22;266;49.514;8.294;2024-03-29T07:48:57;9.50;99.90
563;DHT22;266;49.514;8.294;2024-03-29T07:51:24;9.50;99.90
563;DHT22;266;49.514;8.294;2024-03-29T07:53:51;9.60;99.90
563;DHT22;266;49.514;8.294;2024-03-29T07:56:19;9.60;99.90
563;DHT22;266;49.514;8.294;2024-03-29T07:58:50;9.70;99.90
563;DHT22;266;49.514;8.294;2024-03-29T08:01:19;9.80;99.90
563;DHT22;266;49.514;8.294;2024-03-29T08:03:46;9.80;99.90
563;DHT22;266;49.514;8.294;2024-03-29T08:06:15;9.80;99.90
563;DHT22;266;49.514;8.294;2024-03-29T08:08:44;9.90;99.90
563;DHT22;266;49.514;8.294;2024-03-29T08:11:11;9.90;99.90
563;DHT22;266;49.514;8.294;2024-03-29T08:13:40;9.90;99.90
563;DHT22;266;49.514;8.294;2024-03-29T08:16:08;9.90;99.90
563;DHT22;266;49.514;8.294;2024-03-29T08:18:36;10.00;99.90
563;DHT22;266;49.514;8.294;2024-03-29T08:21:04;10.00;99.90
563;DHT22;266;49.514;8.294;2024-03-29T08:23:39;10.00;99.90
563;DHT22;266;49.514;8.294;2024-03-29T08:26:06;10.00;99.90
563;DHT22;266;49.514;8.294;2024-03-29T08:28:33;10.00;99.90
563;DHT22;266;49.514;8.294;2024-03-29T08:31:04;10.00;99.90
563;DHT22;266;49.514;8.294;2024-03-29T08:33:32;9.90;99.90
563;DHT22;266;49.514;8.294;2024-03-29T08:35:59;9.90;99.90
563;DHT22;266;49.514;8.294;2024-03-29T08:38:26;9.90;99.90
563;DHT22;266;49.514;8.294;2024-03-29T08:40:54;9.90;99.90
563;DHT22;266;49.514;8.294;2024-03-29T08:43:21;9.90;99.90
563;DHT22;266;49.514;8.294;2024-03-29T08:45:48;9.90;99.90
563;DHT22;266;49.514;8.294;2024-03-29T08:48:16;9.80;99.90
563;DHT22;266;49.514;8.294;2024-03-29T08:50:43;9.80;99.90
563;DHT22;266;49.514;8.294;2024-03-29T08:53:10;9.80;99.90
563;DHT22;266;49.514;8.294;2024-03-29T08:55:37;9.80;99.90
563;DHT22;266;49.514;8.294;2024-03-29T08:58:07;9.70;99.90
563;DHT22;266;49.514;8.294;2024-03-29T09:00:34;9.70;99.90
563;DHT22;266;49.514;8.294;2024-03-29T09:03:01;9.70;99.90
563;DHT22;266;49.514;8.294;2024-03-29T09:05:28;9.70;99.90
563;DHT22;266;49.514;8.294;2024-03-29T09:07:56;9.70;99.90
563;DHT22;266;49.514;8.294;2024-03-29T09:10:25;9.70;99.90
563;DHT22;266;49.514;8.294;2024-03-29T09:12:54;9.80;99.90
563;DHT22;266;49.514;8.294;2024-03-29T09:15:23;9.80;99.90
563;DHT22;266;49.514;8.294;2024-03-29T09:17:50;9.70;99.90
563;DHT22;266;49.514;8.294;2024-03-29T09:20:20;9.70;99.90
563;DHT22;266;49.514;8.294;2024-03-29T09:22:50;9.60;99.90
563;DHT22;266;49.514;8.294;2024-03-29T09:25:17;9.60;99.90
563;DHT22;266;49.514;8.294;2024-03-29T09:27:45;9.50;99.90
563;DHT22;266;49.514;8.294;2024-03-29T09:30:14;9.50;99.90
563;DHT22;266;49.514;8.294;2024-03-29T09:32:43;9.40;99.90
563;DHT22;266;49.514;8.294;2024-03-29T09:35:11;9.30;99.90
563;DHT22;266;49.514;8.294;2024-03-29T09:37:38;9.20;99.90
563;DHT22;266;49.514;8.294;2024-03-29T09:40:09;9.10;99.90
563;DHT22;266;49.514;8.294;2024-03-29T09:42:39;9.10;99.90
563;DHT22;266;49.514;8.294;2024-03-29T09:45:07;9.20;99.90
563;DHT22;266;49.514;8.294;2024-03-29T09:47:35;9.00;99.90
563;DHT22;266;49.514;8.294;2024-03-29T09:50:07;9.00;99.90
563;DHT22;266;49.514;8.294;2024-03-29T09:52:35;9.00;99.90
563;DHT22;266;49.514;8.294;2024-03-29T09:55:03;9.00;99.90
563;DHT22;266;49.514;8.294;2024-03-29T09:57:32;9.00;99.90
563;DHT22;266;49.514;8.294;2024-03-29T10:00:03;9.00;99.90
563;DHT22;266;49.514;8.294;2024-03-29T10:02:31;9.10;99.90
563;DHT22;266;49.514;8.294;2024-03-29T10:05:01;9.20;99.90
563;DHT22;266;49.514;8.294;2024-03-29T10:07:33;9.20;99.90
563;DHT22;266;49.514;8.294;2024-03-29T10:10:02;9.30;99.90
563;DHT22;266;49.514;8.294;2024-03-29T10:12:30;9.40;99.90
563;DHT22;266;49.514;8.294;2024-03-29T10:14:57;9.50;99.90
563;DHT22;266;49.514;8.294;2024-03-29T10:17:35;9.50;99.90
563;DHT22;266;49.514;8.294;2024-03-29T10:20:04;9.70;99.90
563;DHT22;266;49.514;8.294;2024-03-29T10:22:40;9.80;99.90
563;DHT22;266;49.514;8.294;2024-03-29T10:25:09;9.90;99.90
563;DHT22;266;49.514;8.294;2024-03-29T10:27:36;10.00;99.90
563;DHT22;266;49.514;8.294;2024-03-29T10:30:04;10.10;99.90
563;DHT22;266;49.514;8.294;2024-03-29T10:32:31;10.20;99.90
563;DHT22;266;49.514;8.294;2024-03-29T10:34:58;10.20;99.90
563;DHT22;266;49.514;8.294;2024-03-29T10:37:28;10.30;99.90
563;DHT22;266;49.514;8.294;2024-03-29T10:40:00;10.40;99.90
563;DHT22;266;49.514;8.294;2024-03-29T10:42:31;10.60;99.90
563;DHT22;266;49.514;8.294;2024-03-29T10:45:00;10.80;99.90
563;DHT22;266;49.514;8.294;2024-03-29T10:47:29;11.00;99.90
563;DHT22;266;49.514;8.294;2024-03-29T10:49:58;11.10;99.90
563;DHT22;266;49.514;8.294;2024-03-29T10:52:26;11.10;99.90
563;DHT22;266;49.514;8.294;2024-03-29T10:54:54;11.20;99.90
563;DHT22;266;49.514;8.294;2024-03-29T10:57:24;11.30;99.90
563;DHT22;266;49.514;8.294;2024-03-29T11:00:00;11.50;99.90
563;DHT22;266;49.514;8.294;2024-03-29T11:02:35;11.60;99.90
563;DHT22;266;49.514;8.294;2024-03-29T11:05:09;11.60;99.90
563;DHT22;266;49.514;8.294;2024-03-29T11:07:39;11.60;99.90
563;DHT22;266;49.514;8.294;2024-03-29T11:10:13;11.70;99.90
563;DHT22;266;49.514;8.294;2024-03-29T11:12:49;11.60;99.90
563;DHT22;266;49.514;8.294;2024-03-29T11:15:25;11.70;99.90
563;DHT22;266;49.514;8.294;2024-03-29T11:17:55;11.70;99.90
563;DHT22;266;49.514;8.294;2024-03-29T11:20:24;11.60;99.90
563;DHT22;266;49.514;8.294;2024-03-29T11:23:02;11.60;99.90
563;DHT22;266;49.514;8.294;2024-03-29T11:25:42;11.60;99.90
563;DHT22;266;49.514;8.294;2024-03-29T11:28:14;11.60;99.90
563;DHT22;266;49.514;8.294;2024-03-29T11:30:49;11.50;99.90
563;DHT22;266;49.514;8.294;2024-03-29T11:33:31;11.50;99.90
563;DHT22;266;49.514;8.294;2024-03-29T11:36:00;11.50;99.90
563;DHT22;266;49.514;8.294;2024-03-29T11:38:34;11.60;99.90
563;DHT22;266;49.514;8.294;2024-03-29T11:41:02;11.70;99.90
563;DHT22;266;49.514;8.294;2024-03-29T11:43:32;11.80;99.90
563;DHT22;266;49.514;8.294;2024-03-29T11:45:59;11.80;99.90
563;DHT22;266;49.514;8.294;2024-03-29T11:48:28;11.90;99.90
563;DHT22;266;49.514;8.294;2024-03-29T11:50:57;11.90;99.90
563;DHT22;266;49.514;8.294;2024-03-29T11:53:25;11.90;99.90
563;DHT22;266;49.514;8.294;2024-03-29T11:55:53;12.00;99.90
563;DHT22;266;49.514;8.294;2024-03-29T11:58:21;12.10;99.90
563;DHT22;266;49.514;8.294;2024-03-29T12:00:51;11.90;99.90
563;DHT22;266;49.514;8.294;2024-03-29T12:03:19;11.90;99.90
563;DHT22;266;49.514;8.294;2024-03-29T12:05:48;11.90;99.90
563;DHT22;266;49.514;8.294;2024-03-29T12:08:16;11.80;99.90
563;DHT22;266;49.514;8.294;2024-03-29T12:10:43;11.80;99.90
563;DHT22;266;49.514;8.294;2024-03-29T12:13:11;11.70;99.90
563;DHT22;266;49.514;8.294;2024-03-29T12:15:40;11.80;99.90
563;DHT22;266;49.514;8.294;2024-03-29T12:18:09;11.80;99.90
563;DHT22;266;49.514;8.294;2024-03-29T12:20:38;11.80;99.90
563;DHT22;266;49.514;8.294;2024-03-29T12:23:08;11.70;99.90
563;DHT22;266;49.514;8.294;2024-03-29T12:25:36;11.70;99.90
563;DHT22;266;49.514;8.294;2024-03-29T12:28:04;11.70;99.90
563;DHT22;266;49.514;8.294;2024-03-29T12:30:32;11.80;99.90
563;DHT22;266;49.514;8.294;2024-03-29T12:33:01;11.70;99.90
563;DHT22;266;49.514;8.294;2024-03-29T12:35:30;11.70;99.90
563;DHT22;266;49.514;8.294;2024-03-29T12:37:58;11.70;99.90
563;DHT22;266;49.514;8.294;2024-03-29T12:40:27;11.70;99.90
563;DHT22;266;49.514;8.294;2024-03-29T12:42:57;11.80;99.90
563;DHT22;266;49.514;8.294;2024-03-29T12:45:24;11.80;99.90
563;DHT22;266;49.514;8.294;2024-03-29T12:47:52;11.70;99.90
563;DHT22;266;49.514;8.294;2024-03-29T12:50:24;11.70;99.90
563;DHT22;266;49.514;8.294;2024-03-29T12:52:54;11.70;99.90
563;DHT22;266;49.514;8.294;2024-03-29T12:55:21;11.70;99.90
563;DHT22;266;49.514;8.294;2024-03-29T12:57:49;11.70;99.90
563;DHT22;266;49.514;8.294;2024-03-29T13:00:20;11.70;99.90
563;DHT22;266;49.514;8.294;2024-03-29T13:02:47;11.70;99.90
563;DHT22;266;49.514;8.294;2024-03-29T13:05:14;11.70;99.90
563;DHT22;266;49.514;8.294;2024-03-29T13:07:42;11.70;99.90
563;DHT22;266;49.514;8.294;2024-03-29T13:10:12;11.70;99.90
563;DHT22;266;49.514;8.294;2024-03-29T13:12:41;11.70;99.90
563;DHT22;266;49.514;8.294;2024-03-29T13:15:17;11.70;99.90
563;DHT22;266;49.514;8.294;2024-03-29T13:17:46;11.70;99.90
563;DHT22;266;49.514;8.294;2024-03-29T13:20:15;11.70;99.90
563;DHT22;266;49.514;8.294;2024-03-29T13:22:43;11.60;99.90
563;DHT22;266;49.514;8.294;2024-03-29T13:25:13;11.60;99.90
563;DHT22;266;49.514;8.294;2024-03-29T13:27:41;11.70;99.90
563;DHT22;266;49.514;8.294;2024-03-29T13:30:09;11.70;99.90
563;DHT22;266;49.514;8.294;2024-03-29T13:32:38;11.80;99.90
563;DHT22;266;49.514;8.294;2024-03-29T13:35:07;11.70;99.90
563;DHT22;266;49.514;8.294;2024-03-29T13:37:37;11.60;99.90
563;DHT22;266;49.514;8.294;2024-03-29T13:40:05;11.60;99.90
563;DHT22;266;49.514;8.294;2024-03-29T13:42:34;11.60;99.90
563;DHT22;266;49.514;8.294;2024-03-29T13:45:01;11.60;99.90
563;DHT22;266;49.514;8.294;2024-03-29T13:47:29;11.60;99.90
563;DHT22;266;49.514;8.294;2024-03-29T13:49:56;11.50;99.90
563;DHT22;266;49.514;8.294;2024-03-29T13:52:23;11.50;99.90
563;DHT22;266;49.514;8.294;2024-03-29T13:54:52;11.70;99.90
563;DHT22;266;49.514;8.294;2024-03-29T13:57:20;11.60;99.90
563;DHT22;266;49.514;8.294;2024-03-29T13:59:49;11.60;99.90
563;DHT22;266;49.514;8.294;2024-03-29T14:02:17;11.70;99.90
563;DHT22;266;49.514;8.294;2024-03-29T14:04:46;11.70;99.90
563;DHT22;266;49.514;8.294;2024-03-29T14:07:14;11.80;99.90
563;DHT22;266;49.514;8.294;2024-03-29T14:09:43;11.80;99.90
563;DHT22;266;49.514;8.294;2024-03-29T14:12:10;11.70;99.90
563;DHT22;266;49.514;8.294;2024-03-29T14:14:38;11.80;99.90
563;DHT22;266;49.514;8.294;2024-03-29T14:17:06;11.80;99.90
563;DHT22;266;49.514;8.294;2024-03-29T14:19:35;11.80;99.90
563;DHT22;266;49.514;8.294;2024-03-29T14:22:02;11.90;99.90
563;DHT22;266;49.514;8.294;2024-03-29T14:24:30;11.90;99.90
563;DHT22;266;49.514;8.294;2024-03-29T14:27:01;11.90;99.90
563;DHT22;266;49.514;8.294;2024-03-29T14:29:29;11.90;99.90
563;DHT22;266;49.514;8.294;2024-03-29T14:31:56;12.00;99.90
563;DHT22;266;49.514;8.294;2024-03-29T14:34:24;12.00;99.90
563;DHT22;266;49.514;8.294;2024-03-29T14:36:52;12.10;99.90
563;DHT22;266;49.514;8.294;2024-03-29T14:39:19;12.10;99.90
563;DHT22;266;49.514;8.294;2024-03-29T14:41:47;12.20;99.90
563;DHT22;266;49.514;8.294;2024-03-29T14:44:16;12.20;99.90
563;DHT22;266;49.514;8.294;2024-03-29T14:46:43;12.40;99.90
563;DHT22;266;49.514;8.294;2024-03-29T14:49:10;12.40;99.90
563;DHT22;266;49.514;8.294;2024-03-29T14:51:41;12.60;99.90
563;DHT22;266;49.514;8.294;2024-03-29T14:54:09;12.60;99.90
563;DHT22;266;49.514;8.294;2024-03-29T14:56:36;12.50;99.90
563;DHT22;266;49.514;8.294;2024-03-29T14:59:04;12.50;99.90
563;DHT22;266;49.514;8.294;2024-03-29T15:01:32;12.50;99.90
563;DHT22;266;49.514;8.294;2024-03-29T15:03:59;12.50;99.90
563;DHT22;266;49.514;8.294;2024-03-29T15:06:26;12.40;99.90
563;DHT22;266;49.514;8.294;2024-03-29T15:08:56;12.50;99.90
563;DHT22;266;49.514;8.294;2024-03-29T15:11:24;12.40;99.90
563;DHT22;266;49.514;8.294;2024-03-29T15:13:52;12.40;99.90
563;DHT22;266;49.514;8.294;2024-03-29T15:16:19;12.40;99.90
563;DHT22;266;49.514;8.294;2024-03-29T15:18:47;12.40;99.90
563;DHT22;266;49.514;8.294;2024-03-29T15:21:14;12.50;99.90
563;DHT22;266;49.514;8.294;2024-03-29T15:23:41;12.50;99.90
563;DHT22;266;49.514;8.294;2024-03-29T15:26:10;12.60;99.90
563;DHT22;266;49.514;8.294;2024-03-29T15:28:37;12.70;99.90
563;DHT22;266;49.514;8.294;2024-03-29T15:31:21;12.80;99.90
563;DHT22;266;49.514;8.294;2024-03-29T15:33:49;13.00;99.90
563;DHT22;266;49.514;8.294;2024-03-29T15:36:15;13.10;99.90
563;DHT22;266;49.514;8.294;2024-03-29T15:38:43;13.10;99.90
563;DHT22;266;49.514;8.294;2024-03-29T15:41:12;13.30;99.90
563;DHT22;266;49.514;8.294;2024-03-29T15:43:39;13.40;99.90
563;DHT22;266;49.514;8.294;2024-03-29T15:46:07;13.50;99.90
563;DHT22;266;49.514;8.294;2024-03-29T15:48:34;13.80;99.90
563;DHT22;266;49.514;8.294;2024-03-29T15:51:01;13.90;99.90
563;DHT22;266;49.514;8.294;2024-03-29T15:53:28;14.00;99.90
563;DHT22;266;49.514;8.294;2024-03-29T15:55:56;14.10;99.90
563;DHT22;266;49.514;8.294;2024-03-29T15:58:25;14.10;99.90
563;DHT22;266;49.514;8.294;2024-03-29T16:00:52;14.10;99.90
563;DHT22;266;49.514;8.294;2024-03-29T16:03:19;14.10;99.90
563;DHT22;266;49.514;8.294;2024-03-29T16:05:46;14.00;99.90
563;DHT22;266;49.514;8.294;2024-03-29T16:08:14;13.90;99.90
563;DHT22;266;49.514;8.294;2024-03-29T16:10:51;13.80;99.90
563;DHT22;266;49.514;8.294;2024-03-29T16:13:20;13.70;99.90
563;DHT22;266;49.514;8.294;2024-03-29T16:15:49;13.70;99.90
563;DHT22;266;49.514;8.294;2024-03-29T16:18:17;13.60;99.90
563;DHT22;266;49.514;8.294;2024-03-29T16:20:44;13.50;99.90
563;DHT22;266;49.514;8.294;2024-03-29T16:23:11;13.50;99.90
563;DHT22;266;49.514;8.294;2024-03-29T16:25:38;13.50;99.90
563;DHT22;266;49.514;8.294;2024-03-29T16:28:07;13.60;99.90
563;DHT22;266;49.514;8.294;2024-03-29T16:30:36;13.70;99.90
563;DHT22;266;49.514;8.294;2024-03-29T16:33:05;13.70;99.90
563;DHT22;266;49.514;8.294;2024-03-29T16:35:31;13.70;99.90
563;DHT22;266;49.514;8.294;2024-03-29T16:37:58;13.60;99.90
563;DHT22;266;49.514;8.294;2024-03-29T16:40:24;13.50;99.90
563;DHT22;266;49.514;8.294;2024-03-29T16:42:51;13.50;99.90
563;DHT22;266;49.514;8.294;2024-03-29T16:45:17;13.50;99.90
563;DHT22;266;49.514;8.294;2024-03-29T16:47:45;13.50;99.90
563;DHT22;266;49.514;8.294;2024-03-29T16:50:12;13.40;99.90